Time;durP1;ratioP1;P1;durP2;ratioP2;P2;SDS_P1;SDS_P2;PMS_P1;PMS_P2;Temp;Humidity;BMP_temperature;BMP_pressure;BME280_temperature;BME280_humidity;BME280_pressure;Samples;Min_cycle;Max_cycle;Signal;HPM_P1;HPM_P2
2022/09/12 00:00:07;;;;;;;20.15;15.32;;;;;;;13.57;100.00;101617.50;5071169;28;20479;-62
2022/09/12 00:02:32;;;;;;;18.95;14.98;;;;;;;13.51;100.00;101612.31;5071249;28;20047;-63
2022/09/12 00:04:59;;;;;;;17.52;14.75;;;;;;;13.55;100.00;101617.53;5070631;28;20047;-64
2022/09/12 00:07:24;;;;;;;18.23;14.93;;;;;;;13.48;100.00;101609.75;5071134;28;20910;-62
2022/09/12 00:09:49;;;;;;;19.98;15.55;;;;;;;13.44;100.00;101605.41;5070842;28;20033;-63
2022/09/12 00:12:15;;;;;;;17.88;14.65;;;;;;;13.47;100.00;101605.38;5070950;28;20032;-63
2022/09/12 00:14:40;;;;;;;19.90;15.35;;;;;;;13.41;100.00;101598.44;5070974;28;20036;-63
2022/09/12 00:17:05;;;;;;;18.25;15.38;;;;;;;13.41;100.00;101602.81;5070862;28;20040;-61
2022/09/12 00:19:30;;;;;;;19.85;15.23;;;;;;;13.42;100.00;101584.41;5071133;28;20358;-64
2022/09/12 00:21:56;;;;;;;19.30;15.40;;;;;;;13.42;100.00;101583.53;5073058;28;20032;-64
2022/09/12 00:24:22;;;;;;;21.85;15.35;;;;;;;13.35;100.00;101592.38;5074434;28;20503;-63
2022/09/12 00:26:47;;;;;;;18.58;15.23;;;;;;;13.34;100.00;101581.00;5074425;28;20036;-64
2022/09/12 00:29:16;;;;;;;18.90;14.98;;;;;;;13.39;100.00;101600.22;5074153;28;20041;-63
2022/09/12 00:31:42;;;;;;;21.25;16.02;;;;;;;13.29;100.00;101593.34;5074536;28;20060;-62
2022/09/12 00:34:08;;;;;;;19.42;16.40;;;;;;;13.31;100.00;101590.69;5074331;28;20040;-61
2022/09/12 00:36:33;;;;;;;18.73;16.35;;;;;;;13.25;100.00;101583.75;5074314;28;20102;-64
2022/09/12 00:38:58;;;;;;;20.80;15.90;;;;;;;13.26;100.00;101574.09;5073923;28;20054;-62
2022/09/12 00:41:32;;;;;;;21.15;16.15;;;;;;;13.25;100.00;101583.75;5074199;28;20047;-64
2022/09/12 00:44:23;;;;;;;21.02;16.52;;;;;;;13.25;100.00;101586.38;5072784;28;20379;-63
2022/09/12 00:47:13;;;;;;;20.77;16.13;;;;;;;13.23;100.00;101575.00;5074063;28;20036;-63
2022/09/12 00:49:57;;;;;;;22.63;18.05;;;;;;;13.25;100.00;101578.50;5073804;28;20351;-64
2022/09/12 00:52:28;;;;;;;23.30;17.17;;;;;;;13.26;100.00;101579.38;5074056;28;20113;-64
2022/09/12 00:55:08;;;;;;;20.47;16.43;;;;;;;13.19;100.00;101581.19;5074107;28;20028;-62
2022/09/12 00:57:40;;;;;;;24.40;17.70;;;;;;;13.12;100.00;101577.75;5073937;28;20609;-63
2022/09/12 01:00:08;;;;;;;;;;;;;;;13.22;100.00;101578.53;5074331;28;20028;-63
2022/09/12 01:02:34;;;;;;;25.77;18.52;;;;;;;13.14;100.00;101567.22;5073932;28;19921;-62
2022/09/12 01:04:59;;;;;;;23.08;18.42;;;;;;;13.13;100.00;101562.84;5074117;28;20087;-64
2022/09/12 01:07:25;;;;;;;20.58;17.92;;;;;;;13.14;100.00;101565.47;5073972;28;20048;-64
2022/09/12 01:09:50;;;;;;;25.08;17.95;;;;;;;13.06;100.00;101566.44;5073650;28;20337;-63
2022/09/12 01:12:17;;;;;;;23.63;17.70;;;;;;;13.06;100.00;101555.91;5073446;28;20025;-63
2022/09/12 01:14:43;;;;;;;24.55;18.20;;;;;;;13.00;100.00;101545.47;5073697;28;20569;-63
2022/09/12 01:17:13;;;;;;;23.95;18.48;;;;;;;12.97;100.00;101558.69;5073427;28;20040;-61
2022/09/12 01:19:54;;;;;;;24.02;19.20;;;;;;;12.97;100.00;101556.03;5073687;28;20360;-63
2022/09/12 01:22:58;;;;;;;27.05;19.75;;;;;;;12.97;100.00;101556.03;5073533;28;20033;-62
2022/09/12 01:25:50;;;;;;;24.52;19.58;;;;;;;12.92;100.00;101556.09;5072922;28;20040;-62
2022/09/12 01:28:28;;;;;;;22.48;18.15;;;;;;;12.90;100.00;101549.97;5072926;28;20451;-61
2022/09/12 01:30:59;;;;;;;24.13;19.60;;;;;;;12.87;100.00;101539.50;5072821;28;20068;-65
2022/09/12 01:33:46;;;;;;;26.25;19.70;;;;;;;12.80;100.00;101533.47;5072326;28;20039;-64
2022/09/12 01:36:37;;;;;;;26.23;19.77;;;;;;;12.79;100.00;101537.00;5073323;28;20047;-62
2022/09/12 01:39:31;;;;;;;29.50;20.75;;;;;;;12.81;100.00;101548.31;5073149;28;20047;-62
2022/09/12 01:42:09;;;;;;;26.00;20.80;;;;;;;12.83;100.00;101540.41;5072738;28;20040;-64
2022/09/12 01:44:55;;;;;;;28.55;21.20;;;;;;;12.79;100.00;101534.38;5072873;28;20056;-64
2022/09/12 01:47:29;;;;;;;27.30;20.98;;;;;;;12.73;100.00;101538.81;5072955;28;20043;-63
2022/09/12 01:50:16;;;;;;;31.73;21.40;;;;;;;12.73;100.00;101533.53;5072758;28;20036;-63
2022/09/12 01:52:50;;;;;;;29.42;21.20;;;;;;;12.75;100.00;101540.53;5072659;28;20454;-63
2022/09/12 01:55:21;;;;;;;28.63;21.08;;;;;;;12.57;100.00;101522.34;5073018;28;20047;-61
2022/09/12 01:58:12;;;;;;;27.77;21.63;;;;;;;12.65;100.00;101530.13;5073241;28;20050;-62
2022/09/12 02:00:55;;;;;;;28.25;22.40;;;;;;;12.67;100.00;101529.22;5072786;28;20121;-63
2022/09/12 02:03:28;;;;;;;30.40;22.42;;;;;;;12.70;100.00;101521.31;5072680;28;20055;-63
2022/09/12 02:06:02;;;;;;;25.88;20.08;;;;;;;12.71;100.00;101507.31;5072640;28;20087;-63
2022/09/12 02:08:32;;;;;;;27.13;21.48;;;;;;;12.73;100.00;101518.66;5072477;28;20036;-62
2022/09/12 02:11:05;;;;;;;26.08;21.35;;;;;;;12.69;100.00;101503.81;5072413;28;20410;-64
2022/09/12 02:13:52;;;;;;;28.75;20.85;;;;;;;12.72;100.00;101509.03;5072484;28;20036;-63
2022/09/12 02:16:36;;;;;;;24.95;20.65;;;;;;;12.73;100.00;101502.91;5072460;28;20036;-61
2022/09/12 02:19:08;;;;;;;29.38;21.30;;;;;;;12.70;100.00;101502.94;5072130;28;20029;-60
2022/09/12 02:21:35;;;;;;;;;;;;;;;12.76;100.00;101508.13;5072914;28;20036;-64
2022/09/12 02:24:03;;;;;;;25.13;20.95;;;;;;;12.69;100.00;101509.06;5072082;28;20331;-61
2022/09/12 02:26:34;;;;;;;27.38;20.88;;;;;;;12.66;100.00;101514.34;5072374;28;20043;-64
2022/09/12 02:28:59;;;;;;;27.30;20.38;;;;;;;12.64;100.00;101499.53;5072059;28;20704;-63
2022/09/12 02:31:37;;;;;;;26.25;21.15;;;;;;;12.65;100.00;101511.75;5071933;28;20102;-62
2022/09/12 02:34:38;;;;;;;25.23;20.02;;;;;;;12.66;100.00;101514.34;5071906;28;20067;-62
2022/09/12 02:37:31;;;;;;;26.90;20.40;;;;;;;12.64;100.00;101516.13;5072039;28;20043;-64
2022/09/12 02:39:57;;;;;;;26.23;20.35;;;;;;;12.59;100.00;101512.69;5071828;28;20469;-63
2022/09/12 02:42:23;;;;;;;27.20;21.23;;;;;;;12.53;100.00;101503.13;5071840;28;20032;-63
2022/09/12 02:44:51;;;;;;;27.15;21.38;;;;;;;12.47;100.00;101511.06;5071613;28;20462;-61
2022/09/12 02:47:24;;;;;;;29.23;22.23;;;;;;;12.49;100.00;101511.91;5071842;28;20043;-61
2022/09/12 02:49:49;;;;;;;30.30;21.90;;;;;;;12.50;100.00;101502.28;5072100;28;20157;-62
2022/09/12 02:52:15;;;;;;;29.85;21.23;;;;;;;12.52;100.00;101501.38;5071718;28;20377;-61
2022/09/12 02:54:42;;;;;;;26.73;21.75;;;;;;;12.46;100.00;101495.34;5071570;28;20036;-61
2022/09/12 02:57:19;;;;;;;29.48;22.35;;;;;;;12.49;100.00;101495.28;5071428;28;20051;-63
2022/09/12 02:59:45;;;;;;;26.92;21.08;;;;;;;12.49;100.00;101495.28;5071286;28;20033;-62
2022/09/12 03:02:35;;;;;;;30.60;21.70;;;;;;;12.45;100.00;101488.34;5071600;28;20062;-61
2022/09/12 03:05:09;;;;;;;29.13;21.80;;;;;;;12.43;100.00;101484.88;5071248;28;20399;-64
2022/09/12 03:08:16;;;;;;;30.50;22.10;;;;;;;12.43;100.00;101483.13;5071435;28;20032;-61
2022/09/12 03:11:00;;;;;;;30.40;22.30;;;;;;;12.41;100.00;101484.88;5071433;28;20046;-62
2022/09/12 03:13:37;;;;;;;30.55;22.10;;;;;;;12.44;100.00;101476.13;5071418;28;20526;-62
2022/09/12 03:16:13;;;;;;;27.83;21.58;;;;;;;12.47;100.00;101479.56;5071229;28;20047;-63
2022/09/12 03:18:57;;;;;;;31.38;23.23;;;;;;;12.34;100.00;101459.59;5071455;28;20036;-63
2022/09/12 03:21:44;;;;;;;31.67;22.83;;;;;;;12.46;100.00;101471.72;5071251;28;20048;-62
2022/09/12 03:24:19;;;;;;;28.15;22.13;;;;;;;12.51;100.00;101483.03;5071133;28;20039;-64
2022/09/12 03:27:08;;;;;;;31.02;22.83;;;;;;;12.49;100.00;101480.41;5071367;28;20040;-64
2022/09/12 03:29:35;;;;;;;29.45;22.23;;;;;;;12.47;100.00;101474.31;5070718;28;20079;-61
2022/09/12 03:32:01;;;;;;;30.88;22.45;;;;;;;12.48;100.00;101473.41;5071118;28;20071;-63
2022/09/12 03:34:27;;;;;;;27.52;21.63;;;;;;;12.48;100.00;101480.44;5071225;28;20032;-62
2022/09/12 03:36:56;;;;;;;30.35;20.45;;;;;;;12.49;100.00;101469.03;5071139;28;20036;-61
2022/09/12 03:39:23;;;;;;;28.10;21.00;;;;;;;12.51;100.00;101469.91;5071105;28;20170;-63
2022/09/12 03:41:49;;;;;;;31.38;22.05;;;;;;;12.51;100.00;101475.16;5071271;28;20064;-63
2022/09/12 03:44:15;;;;;;;29.83;23.23;;;;;;;12.47;100.00;101471.69;5070675;28;20140;-64
2022/09/12 03:46:40;;;;;;;28.55;21.80;;;;;;;12.45;100.00;101468.22;5071437;28;20343;-61
2022/09/12 03:49:06;;;;;;;30.15;22.40;;;;;;;12.36;100.00;101449.06;5071055;28;20040;-63
2022/09/12 03:51:31;;;;;;;29.80;21.42;;;;;;;12.49;100.00;101469.91;5071555;28;20040;-62
2022/09/12 03:53:56;;;;;;;31.83;22.02;;;;;;;12.49;100.00;101471.66;5071234;28;20431;-63
2022/09/12 03:56:22;;;;;;;30.85;22.30;;;;;;;12.47;100.00;101460.31;5072649;28;20037;-61
2022/09/12 03:58:47;;;;;;;30.88;21.38;;;;;;;12.50;100.00;101468.16;5075084;28;20089;-63
2022/09/12 04:01:16;;;;;;;27.58;22.20;;;;;;;12.47;100.00;101461.19;5073710;28;20043;-62
2022/09/12 04:03:43;;;;;;;30.65;22.27;;;;;;;12.46;100.00;101458.59;5074877;28;20040;-61
2022/09/12 04:06:10;;;;;;;31.90;23.63;;;;;;;12.44;100.00;101455.13;5074709;28;20157;-61
2022/09/12 04:08:36;;;;;;;28.15;22.08;;;;;;;12.45;100.00;101455.09;5074580;28;20399;-63
2022/09/12 04:11:05;;;;;;;32.38;22.35;;;;;;;12.46;100.00;101448.09;5074530;28;20064;-63
2022/09/12 04:13:31;;;;;;;30.55;22.10;;;;;;;12.48;100.00;101448.91;5074906;28;20085;-61
2022/09/12 04:15:58;;;;;;;30.38;21.02;;;;;;;12.47;100.00;101449.81;5074579;28;20441;-62
2022/09/12 04:18:24;;;;;;;28.65;21.20;;;;;;;12.46;100.00;101445.47;5074457;28;20431;-63
2022/09/12 04:20:49;;;;;;;30.30;22.02;;;;;;;12.44;100.00;101436.75;5074552;28;20047;-63
2022/09/12 04:23:14;;;;;;;30.60;23.23;;;;;;;12.45;100.00;101448.97;5074244;28;20028;-62
2022/09/12 04:25:39;;;;;;;29.02;22.38;;;;;;;12.44;100.00;101440.25;5074685;28;20069;-61
2022/09/12 04:28:05;;;;;;;31.70;22.77;;;;;;;12.45;100.00;101443.72;5073889;28;20358;-62
2022/09/12 04:30:30;;;;;;;31.52;22.33;;;;;;;12.48;100.00;101439.28;5074106;28;20041;-61
2022/09/12 04:32:55;;;;;;;31.70;23.27;;;;;;;12.49;100.00;101441.03;5074244;28;20037;-62
2022/09/12 04:35:20;;;;;;;33.55;23.67;;;;;;;12.49;100.00;101432.28;5074675;28;20036;-61
2022/09/12 04:37:46;;;;;;;32.38;23.40;;;;;;;12.55;100.00;101442.72;5074553;28;20029;-62
2022/09/12 04:40:11;;;;;;;33.80;23.67;;;;;;;12.56;100.00;101436.59;5074236;28;20115;-61
2022/09/12 04:42:36;;;;;;;33.80;23.73;;;;;;;12.50;100.00;101423.53;5073992;28;20032;-63
2022/09/12 04:45:02;;;;;;;33.08;23.13;;;;;;;12.46;100.00;101429.72;5074095;28;20060;-63
2022/09/12 04:47:27;;;;;;;31.52;23.08;;;;;;;12.36;100.00;101409.69;5074071;28;20489;-62
2022/09/12 04:49:53;;;;;;;34.90;24.63;;;;;;;12.47;100.00;101415.69;5074067;28;20124;-62
2022/09/12 04:52:18;;;;;;;34.17;25.13;;;;;;;12.40;100.00;101412.28;5074121;28;20711;-61
2022/09/12 04:54:43;;;;;;;34.03;24.77;;;;;;;12.51;100.00;101425.25;5074044;28;20032;-62
2022/09/12 04:57:09;;;;;;;39.00;26.55;;;;;;;12.54;100.00;101426.09;5074011;28;20098;-62
2022/09/12 04:59:34;;;;;;;36.33;24.70;;;;;;;12.58;100.00;101432.19;5074259;28;20036;-61
2022/09/12 05:02:00;;;;;;;32.78;24.60;;;;;;;12.58;100.00;101432.19;5073642;28;20459;-62
2022/09/12 05:04:26;;;;;;;36.28;25.25;;;;;;;12.58;100.00;101426.06;5073841;28;20036;-63
2022/09/12 05:06:51;;;;;;;37.28;25.48;;;;;;;12.58;100.00;101428.69;5072881;28;20035;-63
2022/09/12 05:09:16;;;;;;;38.58;26.05;;;;;;;12.56;100.00;101431.34;5072701;28;20036;-63
2022/09/12 05:11:43;;;;;;;37.38;26.25;;;;;;;12.59;100.00;101430.44;5073713;28;20131;-61
2022/09/12 05:14:10;;;;;;;38.38;25.75;;;;;;;12.56;100.00;101444.47;5073227;28;20497;-63
2022/09/12 05:16:36;;;;;;;38.58;26.35;;;;;;;12.64;100.00;101433.88;5073568;28;20055;-62
2022/09/12 05:19:01;;;;;;;35.58;25.40;;;;;;;12.65;100.00;101431.22;5073398;28;20436;-61
2022/09/12 05:21:27;;;;;;;33.47;24.30;;;;;;;12.70;100.00;101429.41;5073172;28;20032;-62
2022/09/12 05:23:54;;;;;;;36.55;25.52;;;;;;;12.70;100.00;101437.28;5073019;28;20460;-63
2022/09/12 05:26:20;;;;;;;38.35;25.80;;;;;;;12.73;100.00;101436.38;5073424;28;20101;-61
2022/09/12 05:28:47;;;;;;;35.97;25.40;;;;;;;12.74;100.00;101439.00;5073373;28;20029;-63
2022/09/12 05:31:14;;;;;;;34.85;24.23;;;;;;;12.77;100.00;101438.97;5073136;28;20047;-63
2022/09/12 05:33:42;;;;;;;36.05;25.42;;;;;;;12.78;100.00;101443.31;5072788;28;20040;-63
2022/09/12 05:36:12;;;;;;;36.78;25.23;;;;;;;12.80;100.00;101433.66;5073228;28;20052;-61
2022/09/12 05:38:37;;;;;;;37.38;24.83;;;;;;;12.77;100.00;101428.44;5073215;28;20036;-63
2022/09/12 05:41:05;;;;;;;39.22;26.33;;;;;;;12.86;100.00;101436.19;5072905;28;20040;-63
2022/09/12 05:43:31;;;;;;;40.63;27.27;;;;;;;12.88;100.00;101430.91;5072610;28;20706;-61
2022/09/12 05:46:10;;;;;;;39.60;26.17;;;;;;;12.90;100.00;101435.28;5072852;28;20371;-61
2022/09/12 05:48:37;;;;;;;39.67;26.70;;;;;;;12.95;100.00;101442.22;5073087;28;20115;-63
2022/09/12 05:51:07;;;;;;;35.42;26.00;;;;;;;13.01;100.00;101440.38;5073040;28;20040;-64
2022/09/12 05:53:34;;;;;;;36.38;27.02;;;;;;;13.04;100.00;101442.97;5072847;28;20040;-64
2022/09/12 05:56:08;;;;;;;39.00;27.65;;;;;;;13.07;100.00;101445.53;5072675;28;20032;-64
2022/09/12 05:58:35;;;;;;;43.15;29.45;;;;;;;13.10;100.00;101447.25;5072824;28;20032;-65
2022/09/12 06:01:06;;;;;;;39.45;27.25;;;;;;;13.17;100.00;101446.31;5072562;28;20032;-66
2022/09/12 06:03:32;;;;;;;38.65;27.20;;;;;;;13.22;100.00;101458.50;5072739;28;20500;-64
2022/09/12 06:06:01;;;;;;;41.58;28.10;;;;;;;13.19;100.00;101447.16;5072459;28;20024;-62
2022/09/12 06:08:26;;;;;;;39.45;26.67;;;;;;;13.33;100.00;101458.34;5072022;28;20504;-62
2022/09/12 06:10:58;;;;;;;37.15;26.80;;;;;;;13.39;100.00;101460.88;5072516;28;20033;-64
2022/09/12 06:13:23;;;;;;;39.28;27.38;;;;;;;13.41;100.00;101464.34;5072490;28;20348;-64
2022/09/12 06:15:49;;;;;;;41.55;27.73;;;;;;;13.43;100.00;101457.31;5072277;28;20044;-65
2022/09/12 06:18:14;;;;;;;39.03;27.15;;;;;;;13.42;100.00;101458.22;5072188;28;20032;-64
2022/09/12 06:20:39;;;;;;;38.50;26.65;;;;;;;13.32;100.00;101437.34;5071902;28;20039;-65
2022/09/12 06:23:05;;;;;;;40.53;27.35;;;;;;;13.46;100.00;101459.91;5072172;28;20457;-64
2022/09/12 06:25:30;;;;;;;36.10;25.73;;;;;;;13.43;100.00;101452.06;5071895;28;20032;-63
2022/09/12 06:27:56;;;;;;;35.08;24.85;;;;;;;13.41;100.00;101453.84;5072216;28;20036;-64
2022/09/12 06:30:21;;;;;;;38.67;26.08;;;;;;;13.44;100.00;101459.06;5070816;28;20102;-64
2022/09/12 06:32:46;;;;;;;38.92;26.10;;;;;;;13.42;100.00;101446.81;5072096;28;20075;-64
2022/09/12 06:35:12;;;;;;;35.03;24.98;;;;;;;13.40;100.00;101452.09;5072122;28;20071;-64
2022/09/12 06:37:38;;;;;;;34.30;24.65;;;;;;;13.43;100.00;101449.44;5071993;28;20081;-66
2022/09/12 06:40:03;;;;;;;35.33;25.63;;;;;;;13.45;100.00;101446.78;5071754;28;20041;-65
2022/09/12 06:42:28;;;;;;;40.03;25.95;;;;;;;13.47;100.00;101456.38;5071586;28;20043;-65
2022/09/12 06:44:54;;;;;;;38.35;25.90;;;;;;;13.53;100.00;101450.13;5071890;28;20068;-65
2022/09/12 06:47:20;;;;;;;34.50;26.27;;;;;;;13.57;100.00;101451.84;5072081;28;20660;-64
2022/09/12 06:49:45;;;;;;;36.83;26.67;;;;;;;13.64;100.00;101445.59;5071834;28;20043;-63
2022/09/12 06:52:10;;;;;;;36.47;26.48;;;;;;;13.75;100.00;101446.28;5071861;28;20736;-63
2022/09/12 06:54:35;;;;;;;37.53;24.80;;;;;;;13.82;100.00;101449.69;5071652;28;20355;-64
2022/09/12 06:57:01;;;;;;;32.85;24.98;;;;;;;13.87;100.00;101450.44;5071559;28;20036;-64
2022/09/12 06:59:26;;;;;;;34.53;24.40;;;;;;;13.90;100.00;101458.28;5071058;28;20024;-63
2022/09/12 07:01:51;;;;;;;33.60;25.08;;;;;;;13.92;100.00;101443.34;5071601;28;20070;-62
2022/09/12 07:04:17;;;;;;;32.22;23.30;;;;;;;13.96;100.00;101445.03;5071416;28;20028;-64
2022/09/12 07:06:43;;;;;;;33.33;24.20;;;;;;;13.97;100.00;101445.91;5071594;28;20132;-64
2022/09/12 07:09:12;;;;;;;36.38;23.48;;;;;;;13.94;100.00;101431.03;5071456;28;20028;-64
2022/09/12 07:11:39;;;;;;;36.90;24.25;;;;;;;14.03;100.00;101446.66;5071473;28;20043;-60
2022/09/12 07:14:07;;;;;;;34.85;25.23;;;;;;;14.03;100.00;101441.38;5069280;28;20037;-61
2022/09/12 07:16:35;;;;;;;36.60;23.70;;;;;;;14.11;100.00;101446.53;5070060;28;20028;-62
2022/09/12 07:19:03;;;;;;;33.65;24.52;;;;;;;14.18;100.00;101446.41;5070230;28;20036;-62
2022/09/12 07:21:29;;;;;;;35.08;24.88;;;;;;;14.22;100.00;101445.41;5071206;28;20037;-64
2022/09/12 07:23:56;;;;;;;32.88;24.00;;;;;;;14.25;100.00;101440.09;5071347;28;20040;-63
2022/09/12 07:26:23;;;;;;;34.95;24.20;;;;;;;14.32;100.00;101435.59;5071025;28;20035;-62
2022/09/12 07:28:55;;;;;;;37.17;24.30;;;;;;;14.39;100.00;101436.31;5071245;28;20037;-63
2022/09/12 07:31:21;;;;;;;;;;;;;;;14.48;100.00;101438.81;5073357;28;20029;-63
2022/09/12 07:33:49;;;;;;;32.30;24.00;;;;;;;14.55;100.00;101432.53;5074803;28;20366;-62
2022/09/12 07:36:16;;;;;;;33.45;24.70;;;;;;;14.64;100.00;101432.34;5075323;28;20028;-62
2022/09/12 07:38:42;;;;;;;31.08;23.42;;;;;;;14.72;100.00;101430.41;5075373;28;20383;-63
2022/09/12 07:41:22;;;;;;;30.45;23.35;;;;;;;14.79;100.00;101432.03;5075261;28;20048;-61
2022/09/12 07:43:51;;;;;;;32.53;23.27;;;;;;;14.84;100.00;101438.06;5075399;28;20098;-63
2022/09/12 07:46:16;;;;;;;29.80;23.08;;;;;;;14.86;100.00;101431.00;5075059;28;20032;-62
2022/09/12 07:48:41;;;;;;;32.67;23.27;;;;;;;14.94;100.00;101434.31;5075120;28;20074;-61
2022/09/12 07:51:09;;;;;;;30.98;23.00;;;;;;;15.01;100.00;101435.06;5075027;28;20036;-62
2022/09/12 07:53:40;;;;;;;29.80;22.73;;;;;;;15.10;100.00;101440.13;5075074;28;20055;-61
2022/09/12 07:56:09;;;;;;;31.20;23.33;;;;;;;15.21;100.00;101438.13;5074940;28;20121;-62
2022/09/12 07:58:35;;;;;;;29.90;22.00;;;;;;;15.44;100.00;101440.19;5074911;28;20116;-63
2022/09/12 08:01:04;;;;;;;27.75;20.88;;;;;;;15.60;100.00;101443.38;5074400;28;20784;-63
2022/09/12 08:03:30;;;;;;;28.75;22.17;;;;;;;15.60;100.00;101438.97;5074918;28;20032;-62
2022/09/12 08:06:10;;;;;;;29.30;21.30;;;;;;;15.73;100.00;101438.69;5074746;28;20033;-63
2022/09/12 08:08:36;;;;;;;24.60;20.63;;;;;;;15.74;100.00;101432.50;5074472;28;20577;-63
2022/09/12 08:11:04;;;;;;;25.92;21.63;;;;;;;15.81;100.00;101434.06;5074689;28;20062;-62
2022/09/12 08:13:32;;;;;;;28.15;20.05;;;;;;;15.91;100.00;101439.06;5074212;28;20565;-64
2022/09/12 08:16:03;;;;;;;24.23;19.33;;;;;;;16.02;100.00;101446.69;5074787;28;20037;-61
2022/09/12 08:18:30;;;;;;;28.87;19.33;;;;;;;16.34;100.00;101440.56;5074964;28;20105;-62
2022/09/12 08:20:59;;;;;;;23.17;19.40;;;;;;;16.85;100.00;101432.94;5074200;28;20475;-63
2022/09/12 08:23:27;;;;;;;25.50;19.35;;;;;;;16.95;99.22;101442.34;5074530;28;20427;-64
2022/09/12 08:25:55;;;;;;;24.23;18.50;;;;;;;16.85;99.92;101443.50;5074341;28;20032;-61
2022/09/12 08:28:20;;;;;;;23.63;18.17;;;;;;;16.70;100.00;101441.31;5074207;28;20060;-63
2022/09/12 08:30:46;;;;;;;24.00;18.33;;;;;;;16.70;100.00;101446.59;5074238;28;20064;-62
2022/09/12 08:33:11;;;;;;;23.50;18.20;;;;;;;16.74;100.00;101448.25;5074011;28;20337;-61
2022/09/12 08:35:36;;;;;;;22.13;17.70;;;;;;;16.82;100.00;101445.38;5074328;28;20040;-61
2022/09/12 08:38:01;;;;;;;23.83;19.13;;;;;;;16.83;100.00;101452.38;5074125;28;20033;-61
2022/09/12 08:40:27;;;;;;;24.05;19.02;;;;;;;16.95;100.00;101452.91;5074170;28;20044;-62
2022/09/12 08:43:09;;;;;;;22.85;17.48;;;;;;;17.25;99.68;101450.22;5073503;28;20473;-62
2022/09/12 08:45:48;;;;;;;21.67;16.35;;;;;;;17.97;95.86;101454.06;5073982;28;20127;-62
2022/09/12 08:48:15;;;;;;;21.73;16.50;;;;;;;18.54;91.47;101437.88;5073631;28;20032;-62
2022/09/12 08:50:44;;;;;;;19.52;15.57;;;;;;;18.86;90.96;101439.38;5073902;28;20032;-62
2022/09/12 08:53:15;;;;;;;21.95;16.10;;;;;;;18.83;89.26;101442.13;5073384;28;20475;-64
2022/09/12 08:55:52;;;;;;;20.65;14.65;;;;;;;18.72;90.38;101441.66;5073842;28;20366;-64
2022/09/12 08:58:24;;;;;;;20.00;14.82;;;;;;;18.66;90.82;101441.91;5073881;28;20565;-64
2022/09/12 09:01:07;;;;;;;19.73;15.23;;;;;;;18.62;92.11;101422.59;5073750;28;20028;-64
2022/09/12 09:03:49;;;;;;;17.38;13.45;;;;;;;18.60;92.96;101429.72;5073556;28;20037;-63
2022/09/12 09:06:38;;;;;;;;;;;;;;;18.70;95.42;101431.09;5074029;28;20063;-64
2022/09/12 09:09:35;;;;;;;16.63;13.45;;;;;;;18.84;93.81;101427.94;5073898;28;20020;-63
2022/09/12 09:12:16;;;;;;;19.02;14.60;;;;;;;18.96;91.17;101429.25;5073308;28;20459;-63
2022/09/12 09:14:56;;;;;;;15.93;13.55;;;;;;;19.04;91.72;101422.75;5073441;28;20075;-63
2022/09/12 09:17:27;;;;;;;12.07;10.77;;;;;;;19.21;89.10;101421.22;5073519;28;20111;-63
2022/09/12 09:20:15;;;;;;;14.13;10.95;;;;;;;19.34;88.11;101417.13;5073607;28;20147;-63
2022/09/12 09:22:53;;;;;;;15.10;10.57;;;;;;;19.46;84.53;101419.28;5073228;28;20455;-62
2022/09/12 09:25:49;;;;;;;14.13;10.10;;;;;;;19.60;84.39;101424.91;5073901;28;20057;-63
2022/09/12 09:28:33;;;;;;;12.73;9.68;;;;;;;19.70;85.62;101426.25;5065685;28;20497;-63
2022/09/12 09:30:58;;;;;;;13.30;11.20;;;;;;;19.79;84.83;101411.72;5053255;28;20140;-63
2022/09/12 09:33:29;;;;;;;15.10;10.23;;;;;;;20.00;82.93;101415.25;5058973;28;20120;-63
2022/09/12 09:36:09;;;;;;;10.88;9.32;;;;;;;20.12;81.31;101406.75;5073252;28;20029;-63
2022/09/12 09:38:46;;;;;;;11.88;9.40;;;;;;;20.25;80.95;101413.25;5073269;28;20052;-62
2022/09/12 09:41:29;;;;;;;10.80;8.88;;;;;;;20.33;81.44;101402.25;5073068;28;20040;-62
2022/09/12 09:43:57;;;;;;;12.15;9.70;;;;;;;20.52;79.93;101395.22;5072960;28;20064;-63
2022/09/12 09:46:22;;;;;;;13.25;9.80;;;;;;;20.67;79.36;101401.63;5073191;28;20040;-63
2022/09/12 09:48:49;;;;;;;10.82;9.30;;;;;;;20.76;76.61;101406.53;5072854;28;20110;-63
2022/09/12 09:51:26;;;;;;;11.05;9.02;;;;;;;20.84;78.16;101391.06;5072441;28;20044;-63
2022/09/12 09:54:02;;;;;;;9.75;8.60;;;;;;;20.94;78.51;101392.34;5071848;28;20807;-63
2022/09/12 09:56:32;;;;;;;11.73;8.38;;;;;;;21.12;77.82;101393.28;5072928;28;20795;-63
2022/09/12 09:59:30;;;;;;;12.57;8.70;;;;;;;21.25;77.74;101386.44;5072613;28;20032;-63
2022/09/12 10:02:22;;;;;;;10.75;8.00;;;;;;;21.25;76.07;101367.81;5072957;28;20327;-63
2022/09/12 10:04:56;;;;;;;8.65;6.57;;;;;;;21.53;74.59;101377.94;5068613;28;20055;-62
2022/09/12 10:07:23;;;;;;;10.05;7.25;;;;;;;21.52;71.79;101365.56;5072646;28;20105;-63
2022/09/12 10:10:05;;;;;;;10.63;7.18;;;;;;;21.68;75.53;101373.63;5072438;28;20052;-63
2022/09/12 10:12:31;;;;;;;9.70;6.55;;;;;;;21.74;71.08;101360.00;5072453;28;20048;-63
2022/09/12 10:14:57;;;;;;;7.90;6.75;;;;;;;21.85;68.65;101374.47;5072429;28;20047;-63
2022/09/12 10:17:38;;;;;;;7.85;6.10;;;;;;;21.95;69.69;101358.88;5072530;28;20059;-63
2022/09/12 10:20:04;;;;;;;8.15;6.53;;;;;;;21.94;69.03;101353.63;5071016;28;20111;-63
2022/09/12 10:22:29;;;;;;;7.50;6.70;;;;;;;22.04;66.67;101347.75;5070581;28;20111;-63
2022/09/12 10:24:59;;;;;;;9.18;6.68;;;;;;;22.04;67.10;101341.56;5072139;28;20464;-63
2022/09/12 10:27:31;;;;;;;7.65;6.30;;;;;;;22.07;67.67;101344.94;5071624;28;20040;-63
2022/09/12 10:30:02;;;;;;;7.97;7.28;;;;;;;22.04;66.71;101342.44;5071793;28;20336;-62
2022/09/12 10:32:35;;;;;;;9.35;7.32;;;;;;;22.19;66.34;101340.75;5072129;28;20032;-63
2022/09/12 10:35:08;;;;;;;7.60;6.28;;;;;;;22.26;67.14;101335.97;5072048;28;20039;-63
2022/09/12 10:37:36;;;;;;;9.40;7.00;;;;;;;22.32;67.04;101325.81;5072107;28;20032;-63
2022/09/12 10:40:04;;;;;;;10.30;6.72;;;;;;;22.27;63.96;101337.69;5071933;28;20035;-62
2022/09/12 10:42:52;;;;;;;8.70;7.25;;;;;;;22.19;65.40;101330.94;5070728;28;20450;-66
2022/09/12 10:45:36;;;;;;;7.35;5.43;;;;;;;22.35;65.62;101328.31;5071823;28;20051;-63
2022/09/12 10:48:26;;;;;;;7.43;5.25;;;;;;;22.56;67.51;101321.78;5071721;28;20119;-62
2022/09/12 10:50:51;;;;;;;6.57;4.97;;;;;;;22.79;64.76;101322.34;5071678;28;20033;-62
2022/09/12 10:53:27;;;;;;;6.18;4.60;;;;;;;22.86;62.69;101313.03;5072014;28;20232;-64
2022/09/12 10:56:07;;;;;;;8.00;5.35;;;;;;;22.96;64.28;101308.91;5071565;28;20107;-63
2022/09/12 10:59:10;;;;;;;5.95;5.10;;;;;;;23.02;64.20;101305.03;5071658;28;20078;-64
2022/09/12 11:01:42;;;;;;;6.75;4.00;;;;;;;23.04;60.54;101303.09;5071376;28;20408;-62
2022/09/12 11:04:25;;;;;;;7.53;5.18;;;;;;;23.00;60.30;101297.09;5071427;28;20526;-63
2022/09/12 11:07:15;;;;;;;7.85;4.32;;;;;;;23.02;62.53;101299.69;5071517;28;20428;-64
2022/09/12 11:09:59;;;;;;;7.00;4.78;;;;;;;23.04;60.40;101297.75;5071509;28;20039;-62
2022/09/12 11:12:51;;;;;;;4.90;4.40;;;;;;;23.06;60.53;101288.72;5071632;28;20043;-63
2022/09/12 11:15:58;;;;;;;5.60;4.47;;;;;;;23.10;60.17;101294.75;5071614;28;20036;-62
2022/09/12 11:18:43;;;;;;;5.22;4.53;;;;;;;23.16;59.42;101297.94;5071756;28;20028;-63
2022/09/12 11:21:17;;;;;;;5.88;4.63;;;;;;;23.23;58.47;101293.94;5071553;28;20043;-62
2022/09/12 11:24:01;;;;;;;7.22;5.38;;;;;;;23.15;58.38;101280.19;5071509;28;20745;-63
2022/09/12 11:27:08;;;;;;;5.25;4.00;;;;;;;23.28;59.93;101282.97;5071725;28;20045;-63